Time;durP1;ratioP1;P1;durP2;ratioP2;P2;SDS_P1;SDS_P2;PMS_P1;PMS_P2;Temp;Humidity;BMP_temperature;BMP_pressure;BME280_temperature;BME280_humidity;BME280_pressure;Samples;Min_cycle;Max_cycle;Signal;HPM_P1;HPM_P2
2023/05/08 00:01:30;;;;;;;31.75;18.00;;;11.80;1.00;12.40;94407.00;;;;7400554;19;20667;-79
2023/05/08 00:04:04;;;;;;;26.27;16.20;;;11.80;1.00;12.30;94380.00;;;;7401417;19;20144;-78
2023/05/08 00:06:38;;;;;;;26.55;16.73;;;11.80;1.00;12.30;94408.00;;;;7400816;19;20213;-79
2023/05/08 00:09:05;;;;;;;28.70;16.38;;;11.70;1.00;12.20;94398.00;;;;7400538;19;20597;-79
2023/05/08 00:11:45;;;;;;;27.73;16.30;;;11.70;1.00;12.20;94399.00;;;;7399262;19;20512;-79
2023/05/08 00:14:13;;;;;;;38.03;17.48;;;11.70;1.00;12.20;94406.00;;;;7400537;19;20145;-79
2023/05/08 00:16:46;;;;;;;26.70;16.80;;;11.60;1.00;12.10;94375.00;;;;7401914;19;20718;-79
2023/05/08 00:19:14;;;;;;;30.58;16.55;;;11.70;1.00;12.20;94396.00;;;;7400868;19;20155;-79
2023/05/08 00:21:47;;;;;;;30.15;16.60;;;11.70;1.00;12.20;94378.00;;;;7397982;19;20612;-79
2023/05/08 00:24:15;;;;;;;29.63;16.63;;;11.60;1.00;12.20;94390.00;;;;7393886;19;20145;-79
2023/05/08 00:26:48;;;;;;;24.67;14.98;;;11.60;1.00;12.10;94370.00;;;;7395999;19;20232;-79
2023/05/08 00:29:22;;;;;;;24.23;14.77;;;11.60;1.00;12.20;94403.00;;;;7402118;19;20143;-79
2023/05/08 00:31:49;;;;;;;27.98;15.07;;;11.70;1.00;12.10;94382.00;;;;7400308;19;20143;-79
2023/05/08 00:34:23;;;;;;;28.27;16.13;;;11.60;1.00;12.20;94409.00;;;;7400693;19;20224;-79
2023/05/08 00:36:51;;;;;;;23.10;12.23;;;11.60;1.00;12.00;94400.00;;;;7400183;19;20133;-79
2023/05/08 00:39:24;;;;;;;25.75;14.60;;;11.60;1.00;12.10;94377.00;;;;7398789;19;20124;-79
2023/05/08 00:41:52;;;;;;;23.35;14.35;;;11.60;1.00;12.10;94394.00;;;;7400973;19;20541;-79
2023/05/08 00:44:26;;;;;;;24.88;16.25;;;11.60;1.00;12.10;94404.00;;;;7401056;19;20137;-79
2023/05/08 00:46:53;;;;;;;28.27;16.35;;;11.70;1.00;12.10;94370.00;;;;7400962;19;20146;-78
2023/05/08 00:49:21;;;;;;;24.88;15.70;;;11.70;1.00;12.10;94385.00;;;;7401238;19;20134;-79
2023/05/08 00:51:55;;;;;;;27.80;16.98;;;11.70;1.00;12.20;94388.00;;;;7400763;19;20153;-79
2023/05/08 00:54:23;;;;;;;26.92;16.83;;;11.70;1.00;12.20;94392.00;;;;7398892;19;20561;-79
2023/05/08 00:56:56;;;;;;;34.72;14.88;;;11.70;1.00;12.30;94402.00;;;;7400173;19;20132;-78
2023/05/08 00:59:31;;;;;;;27.33;17.02;;;11.70;1.00;12.30;94386.00;;;;7399665;19;20152;-79
2023/05/08 01:02:00;;;;;;;23.95;15.77;;;11.70;1.00;12.30;94403.00;;;;7400181;19;20153;-79
2023/05/08 01:04:35;;;;;;;26.13;13.88;;;11.70;1.00;12.20;94400.00;;;;7400716;19;20511;-79
2023/05/08 01:07:08;;;;;;;25.80;15.80;;;11.70;1.00;12.20;94370.00;;;;7398196;19;20152;-80
2023/05/08 01:09:42;;;;;;;21.98;14.75;;;11.70;1.00;12.20;94398.00;;;;7399803;19;20212;-79
2023/05/08 01:12:46;;;;;;;23.55;15.02;;;11.70;1.00;12.20;94389.00;;;;7397208;19;20148;-79
2023/05/08 01:15:53;;;;;;;24.98;15.65;;;11.70;1.00;12.10;94398.00;;;;7399197;19;20117;-79
2023/05/08 01:18:41;;;;;;;21.45;13.65;;;11.80;1.00;12.20;94387.00;;;;7398173;19;20183;-79
2023/05/08 01:21:20;;;;;;;21.65;14.55;;;11.70;1.00;12.10;94407.00;;;;7399329;19;20133;-79
2023/05/08 01:24:18;;;;;;;25.60;16.33;;;11.70;1.00;12.20;94403.00;;;;7398542;19;20509;-79
2023/05/08 01:27:52;;;;;;;24.90;14.90;;;11.80;1.00;12.20;94400.00;;;;7399047;19;20485;-79
2023/05/08 01:30:58;;;;;;;24.48;13.20;;;11.80;1.00;12.20;94406.00;;;;7393709;19;20145;-79
2023/05/08 01:33:57;;;;;;;25.35;13.43;;;11.70;1.00;12.30;94419.00;;;;7399163;19;20158;-79
2023/05/08 01:36:38;;;;;;;25.00;13.80;;;11.70;1.00;12.20;94403.00;;;;7397618;19;20151;-79
2023/05/08 01:39:48;;;;;;;26.02;13.35;;;11.60;1.00;12.20;94385.00;;;;7398492;19;20140;-79
2023/05/08 01:42:28;;;;;;;22.77;14.50;;;11.60;1.00;12.20;94403.00;;;;7397545;19;20568;-78
2023/05/08 01:45:17;;;;;;;19.83;13.80;;;11.60;1.00;12.30;94392.00;;;;7399061;19;20156;-78
2023/05/08 01:47:59;;;;;;;24.17;13.55;;;11.60;1.00;12.20;94399.00;;;;7396737;19;20542;-80
2023/05/08 01:50:45;;;;;;;22.95;12.88;;;11.60;1.00;12.20;94360.00;;;;7398206;19;20483;-80
2023/05/08 01:53:26;;;;;;;19.08;11.32;;;11.60;1.00;12.20;94382.00;;;;7397558;19;20141;-80
2023/05/08 01:56:15;;;;;;;20.90;11.48;;;11.50;1.00;12.20;94409.00;;;;7396595;19;20148;-80
2023/05/08 01:58:44;;;;;;;16.45;11.30;;;11.50;1.00;12.20;94383.00;;;;7397628;19;20452;-80
2023/05/08 02:01:24;;;;;;;28.77;14.43;;;11.50;1.00;12.20;94425.00;;;;7397245;19;20169;-78
2023/05/08 02:03:59;;;;;;;26.88;13.63;;;11.50;1.00;12.30;94426.00;;;;7395625;19;20888;-78
2023/05/08 02:06:30;;;;;;;20.83;12.75;;;11.50;1.00;12.30;94413.00;;;;7400889;19;20143;-77
2023/05/08 02:09:09;;;;;;;18.60;12.02;;;11.50;1.00;12.20;94393.00;;;;7402700;19;20479;-78
2023/05/08 02:11:47;;;;;;;23.77;13.80;;;11.50;1.00;12.20;94397.00;;;;7403917;19;20164;-78
2023/05/08 02:14:30;;;;;;;19.88;14.25;;;11.50;1.00;12.30;94405.00;;;;7405117;19;20621;-79
2023/05/08 02:17:01;;;;;;;17.65;12.07;;;11.50;1.00;12.20;94412.00;;;;7403974;19;20618;-79
2023/05/08 02:19:39;;;;;;;20.75;13.02;;;11.60;1.00;12.40;94404.00;;;;7405378;19;20595;-79
2023/05/08 02:22:09;;;;;;;23.58;13.13;;;11.60;1.00;12.40;94424.00;;;;7404904;19;20129;-79
2023/05/08 02:24:45;;;;;;;20.42;12.57;;;11.60;1.00;12.30;94423.00;;;;7403957;19;20135;-78
2023/05/08 02:27:13;;;;;;;15.30;10.20;;;11.60;1.00;12.30;94421.00;;;;7404959;19;20504;-79
2023/05/08 02:29:50;;;;;;;17.65;10.48;;;11.60;1.00;12.40;94390.00;;;;7402077;19;20161;-78
2023/05/08 02:32:25;;;;;;;21.63;11.07;;;11.60;1.00;12.40;94424.00;;;;7403951;19;20220;-78
2023/05/08 02:35:00;;;;;;;20.67;11.23;;;11.60;1.00;12.30;94395.00;;;;7402850;19;20144;-80
2023/05/08 02:37:34;;;;;;;16.30;10.40;;;11.70;1.00;12.20;94412.00;;;;7404308;19;20623;-77
2023/05/08 02:40:07;;;;;;;20.10;11.68;;;11.60;1.00;12.30;94422.00;;;;7403733;19;20149;-80
2023/05/08 02:42:41;;;;;;;25.83;11.38;;;11.60;1.00;12.20;94402.00;;;;7404591;19;20137;-79
2023/05/08 02:45:15;;;;;;;19.23;11.68;;;11.60;1.00;12.20;94372.00;;;;7403210;19;20489;-78
2023/05/08 02:48:06;;;;;;;17.75;10.43;;;11.60;1.00;12.10;94432.00;;;;7403204;19;20607;-79
2023/05/08 02:50:54;;;;;;;15.55;10.77;;;11.60;1.00;12.00;94418.00;;;;7403577;19;20168;-78
2023/05/08 02:53:35;;;;;;;19.77;11.27;;;11.60;1.00;12.10;94415.00;;;;7404403;19;20136;-79
2023/05/08 02:56:29;;;;;;;20.50;12.30;;;11.60;1.00;12.00;94387.00;;;;7402220;19;20657;-80
2023/05/08 02:59:15;;;;;;;22.83;12.68;;;11.60;1.00;12.10;94392.00;;;;7402595;19;20144;-79
2023/05/08 03:01:57;;;;;;;17.42;11.43;;;11.60;1.00;12.20;94423.00;;;;7402844;19;20208;-79
2023/05/08 03:04:33;;;;;;;19.48;13.38;;;11.60;1.00;12.20;94426.00;;;;7404444;19;20133;-79
2023/05/08 03:07:07;;;;;;;18.42;11.73;;;11.60;1.00;12.10;94409.00;;;;7401065;19;20149;-79
2023/05/08 03:09:56;;;;;;;16.38;11.23;;;11.70;1.00;12.00;94393.00;;;;7400258;19;20183;-79
2023/05/08 03:12:39;;;;;;;14.98;10.35;;;11.70;1.00;12.00;94417.00;;;;7401605;19;20145;-79
2023/05/08 03:15:22;;;;;;;16.02;11.05;;;11.70;1.00;12.00;94421.00;;;;7402730;19;20153;-79
2023/05/08 03:18:06;;;;;;;19.13;11.45;;;11.70;1.00;12.00;94412.00;;;;7399315;19;20596;-79
2023/05/08 03:20:56;;;;;;;24.00;11.88;;;11.70;1.00;12.00;94406.00;;;;7402346;19;20222;-78
2023/05/08 03:23:33;;;;;;;18.17;12.18;;;11.70;1.00;12.20;94419.00;;;;7401731;19;20660;-78
2023/05/08 03:26:09;;;;;;;24.00;12.88;;;11.60;1.00;12.20;94419.00;;;;7402064;19;20534;-79
2023/05/08 03:28:43;;;;;;;16.17;11.75;;;11.60;1.00;12.30;94382.00;;;;7401321;19;20149;-79
2023/05/08 03:31:20;;;;;;;25.05;13.90;;;11.60;1.00;12.30;94417.00;;;;7397743;19;20137;-80
2023/05/08 03:33:55;;;;;;;23.90;11.80;;;11.60;1.00;12.10;94414.00;;;;7401694;19;20153;-77
2023/05/08 03:36:29;;;;;;;17.38;10.82;;;11.60;1.00;12.10;94392.00;;;;7401604;19;20595;-79
2023/05/08 03:38:58;;;;;;;20.88;11.32;;;11.60;1.00;12.10;94419.00;;;;7402547;19;20133;-79
2023/05/08 03:41:32;;;;;;;17.98;11.35;;;11.60;1.00;12.10;94389.00;;;;7400448;19;20480;-80
2023/05/08 03:44:02;;;;;;;19.42;11.38;;;11.60;1.00;12.20;94390.00;;;;7400871;19;20208;-79
2023/05/08 03:46:37;;;;;;;17.60;11.38;;;11.60;1.00;12.20;94402.00;;;;7401344;19;20133;-80
2023/05/08 03:49:07;;;;;;;22.40;11.43;;;11.60;1.00;12.20;94397.00;;;;7398855;19;20140;-80
2023/05/08 03:51:42;;;;;;;19.55;11.88;;;11.60;1.00;12.10;94412.00;;;;7401799;19;20144;-80
2023/05/08 03:54:09;;;;;;;20.17;12.20;;;11.60;1.00;12.20;94421.00;;;;7400023;19;20168;-80
2023/05/08 03:56:44;;;;;;;24.45;13.95;;;11.60;1.00;12.20;94421.00;;;;7400799;19;20472;-80
2023/05/08 03:59:28;;;;;;;20.23;12.55;;;11.60;1.00;12.20;94421.00;;;;7400857;19;20144;-79
2023/05/08 04:02:28;;;;;;;19.02;12.40;;;11.60;1.00;12.20;94321.00;;;;7400473;19;20438;-79
2023/05/08 04:05:47;;;;;;;19.08;12.05;;;11.60;1.00;12.10;94427.00;;;;7399277;19;20169;-79
2023/05/08 04:08:29;;;;;;;22.15;13.02;;;11.70;1.00;12.20;94427.00;;;;7398098;19;20173;-79
2023/05/08 04:11:20;;;;;;;24.75;13.52;;;11.70;1.00;12.20;94385.00;;;;7399506;19;20145;-80
2023/05/08 04:14:03;;;;;;;18.83;11.70;;;11.60;1.00;12.10;94408.00;;;;7401119;19;20140;-80
2023/05/08 04:16:46;;;;;;;21.00;13.07;;;11.70;1.00;12.20;94421.00;;;;7400082;19;20524;-80
2023/05/08 04:19:32;;;;;;;17.27;12.73;;;11.70;1.00;12.30;94442.00;;;;7399772;19;20660;-80
2023/05/08 04:22:08;;;;;;;21.05;13.52;;;11.70;1.00;12.30;94410.00;;;;7400893;19;20143;-82
2023/05/08 04:24:43;;;;;;;17.95;11.95;;;11.70;1.00;12.40;94438.00;;;;7394925;19;20141;-82
2023/05/08 04:27:18;;;;;;;16.80;12.45;;;11.70;1.00;12.30;94446.00;;;;7398985;19;20159;-81
2023/05/08 04:29:45;;;;;;;18.10;12.18;;;11.70;1.00;12.40;94415.00;;;;7395830;19;20143;-81
2023/05/08 04:32:13;;;;;;;25.75;13.50;;;11.70;1.00;12.30;94433.00;;;;7399151;19;20182;-80
2023/05/08 04:34:47;;;;;;;21.25;13.20;;;11.70;1.00;12.30;94441.00;;;;7400269;19;20172;-80
2023/05/08 04:37:25;;;;;;;19.23;11.45;;;11.60;1.00;12.30;94448.00;;;;7381314;19;20156;-79
2023/05/08 04:40:00;;;;;;;16.58;11.82;;;11.70;1.00;12.30;94448.00;;;;7376471;19;20205;-78
2023/05/08 04:42:48;;;;;;;19.23;11.82;;;11.70;1.00;12.30;94448.00;;;;7386694;19;20141;-78
2023/05/08 04:45:22;;;;;;;21.17;12.55;;;11.70;1.00;12.40;94444.00;;;;7385754;19;20523;-79
2023/05/08 04:47:50;;;;;;;15.80;11.25;;;11.70;1.00;12.20;94418.00;;;;7386157;19;20165;-78
2023/05/08 04:50:24;;;;;;;17.45;11.90;;;11.70;1.00;12.40;94461.00;;;;7384418;19;20152;-78
2023/05/08 04:52:51;;;;;;;43.47;16.17;;;11.70;1.00;12.40;94445.00;;;;7383180;19;20133;-79
2023/05/08 04:55:26;;;;;;;19.98;11.65;;;11.70;1.00;12.40;94410.00;;;;7383825;19;20128;-80
2023/05/08 04:57:59;;;;;;;55.90;14.00;;;11.70;1.00;12.40;94433.00;;;;7383080;19;20148;-79
2023/05/08 05:00:34;;;;;;;31.08;13.20;;;11.70;1.00;12.50;94412.00;;;;7382354;19;20160;-79
2023/05/08 05:03:08;;;;;;;27.65;12.73;;;11.80;1.00;12.40;94428.00;;;;7382676;19;20244;-77
2023/05/08 05:05:35;;;;;;;18.58;11.20;;;11.80;1.00;12.40;94440.00;;;;7381171;19;20840;-78
2023/05/08 05:08:09;;;;;;;33.97;13.80;;;11.80;1.00;12.50;94445.00;;;;7383161;19;20149;-77
2023/05/08 05:10:43;;;;;;;26.02;13.52;;;11.80;1.00;12.50;94454.00;;;;7384061;19;20132;-77
2023/05/08 05:13:23;;;;;;;48.00;16.10;;;11.80;1.00;12.50;94448.00;;;;7384096;19;20167;-78
2023/05/08 05:15:53;;;;;;;16.15;11.10;;;11.90;1.00;12.60;94445.00;;;;7383142;19;20133;-78
2023/05/08 05:18:27;;;;;;;27.23;12.18;;;11.90;1.00;12.60;94461.00;;;;7382037;19;20148;-79
2023/05/08 05:21:01;;;;;;;23.83;13.10;;;12.00;1.00;12.70;94462.00;;;;7382550;19;20136;-78
2023/05/08 05:23:35;;;;;;;16.38;12.15;;;12.00;1.00;12.80;94471.00;;;;7380604;19;20184;-78
2023/05/08 05:26:03;;;;;;;18.30;12.02;;;12.10;1.00;12.90;94467.00;;;;7380971;19;20212;-78
2023/05/08 05:28:37;;;;;;;17.17;12.20;;;12.20;1.00;13.00;94428.00;;;;7379223;19;20153;-78
2023/05/08 05:31:26;;;;;;;26.10;13.50;;;12.30;99.90;13.10;94410.00;;;;7381852;19;20204;-79
2023/05/08 05:34:08;;;;;;;15.10;11.02;;;12.40;99.90;13.20;94473.00;;;;7378993;19;20133;-79
2023/05/08 05:36:36;;;;;;;16.92;11.32;;;12.50;99.90;13.30;94453.00;;;;7380864;19;20156;-79
2023/05/08 05:39:10;;;;;;;14.75;10.90;;;12.60;99.90;13.30;94465.00;;;;7382257;19;20188;-79
2023/05/08 05:41:37;;;;;;;20.90;12.73;;;12.70;99.90;13.30;94446.00;;;;7378726;19;20152;-78
2023/05/08 05:44:04;;;;;;;18.58;10.90;;;12.70;99.90;13.30;94446.00;;;;7381693;19;20129;-78
2023/05/08 05:46:38;;;;;;;31.33;13.88;;;12.70;99.90;13.20;94475.00;;;;7382215;19;20468;-79
2023/05/08 05:49:07;;;;;;;15.32;11.43;;;12.70;99.90;13.30;94462.00;;;;7380634;19;20164;-79
2023/05/08 05:51:41;;;;;;;14.00;10.75;;;12.70;1.00;13.30;94480.00;;;;7382971;19;20133;-79
2023/05/08 05:54:09;;;;;;;16.67;11.70;;;12.70;1.00;13.30;94485.00;;;;7380810;19;20152;-79
2023/05/08 05:56:43;;;;;;;17.65;10.15;;;12.70;1.00;13.40;94477.00;;;;7377438;19;20524;-80
2023/05/08 05:59:17;;;;;;;19.10;10.95;;;12.80;1.00;13.40;94467.00;;;;7380836;19;20513;-81
2023/05/08 06:01:44;;;;;;;10.95;9.30;;;12.80;1.00;13.50;94459.00;;;;7381907;19;22891;-80
2023/05/08 06:04:17;;;;;;;11.15;8.95;;;12.90;1.00;13.60;94457.00;;;;7380412;19;20155;-81
2023/05/08 06:06:45;;;;;;;11.85;8.73;;;12.90;1.00;13.70;94456.00;;;;7379251;19;20635;-81
2023/05/08 06:09:12;;;;;;;13.55;9.82;;;13.00;1.00;13.70;94437.00;;;;7380831;19;20139;-81
2023/05/08 06:11:51;;;;;;;9.52;8.52;;;13.00;1.00;13.80;94487.00;;;;7378515;19;20180;-81
2023/05/08 06:14:26;;;;;;;9.68;7.80;;;13.10;1.00;13.70;94457.00;;;;7380092;19;20152;-81
2023/05/08 06:17:00;;;;;;;11.18;9.40;;;13.10;1.00;13.70;94461.00;;;;7375682;19;20159;-80
2023/05/08 06:19:34;;;;;;;13.13;9.73;;;13.10;1.00;13.90;94460.00;;;;7379642;19;20157;-81
2023/05/08 06:22:07;;;;;;;11.40;9.85;;;13.00;1.00;13.70;94469.00;;;;7378901;19;20153;-79
2023/05/08 06:24:35;;;;;;;15.73;10.40;;;12.90;1.00;13.70;94507.00;;;;7379999;19;20132;-80
2023/05/08 06:27:10;;;;;;;10.60;8.90;;;12.90;1.00;13.50;94474.00;;;;7380526;19;20121;-80
2023/05/08 06:29:37;;;;;;;10.07;7.65;;;12.80;1.00;13.50;94483.00;;;;7379624;19;20573;-80
2023/05/08 06:32:12;;;;;;;8.65;7.72;;;12.80;1.00;13.40;94480.00;;;;7377361;19;20148;-79
2023/05/08 06:34:46;;;;;;;8.57;7.68;;;12.80;1.00;13.00;94458.00;;;;7381369;19;20596;-80
2023/05/08 06:37:20;;;;;;;7.40;6.60;;;12.80;1.00;13.40;94493.00;;;;7379566;19;20481;-79
2023/05/08 06:39:47;;;;;;;9.00;8.10;;;12.80;1.00;13.60;94491.00;;;;7379438;19;20672;-80
2023/05/08 06:42:20;;;;;;;8.60;6.75;;;12.90;1.00;13.80;94496.00;;;;7379159;19;20249;-80
2023/05/08 06:44:54;;;;;;;7.45;6.75;;;13.10;1.00;13.90;94470.00;;;;7379105;19;20489;-81
2023/05/08 06:47:28;;;;;;;7.65;6.60;;;13.30;1.00;14.20;94472.00;;;;7378762;19;20153;-80
2023/05/08 06:50:02;;;;;;;7.32;6.63;;;13.30;1.00;14.10;94494.00;;;;7379206;19;20604;-81
2023/05/08 06:52:36;;;;;;;5.90;5.30;;;13.50;1.00;14.20;94486.00;;;;7381948;19;20180;-81
2023/05/08 06:55:11;;;;;;;5.63;4.97;;;13.60;1.00;14.10;94494.00;;;;7385869;19;20156;-81
2023/05/08 06:57:44;;;;;;;6.00;5.10;;;13.60;1.00;14.10;94466.00;;;;7386224;19;20480;-80
2023/05/08 07:00:12;;;;;;;6.63;5.80;;;13.60;1.00;14.10;94500.00;;;;7386394;19;20149;-80
2023/05/08 07:02:46;;;;;;;8.75;7.95;;;13.50;99.90;13.90;94490.00;;;;7386132;19;20152;-80
2023/05/08 07:05:14;;;;;;;9.35;8.35;;;13.50;99.90;13.90;94475.00;;;;7385932;19;20227;-82
2023/05/08 07:07:41;;;;;;;9.80;8.80;;;13.40;44.00;13.90;94436.00;;;;7385295;19;20152;-81
2023/05/08 07:10:16;;;;;;;10.70;8.00;;;13.30;1.00;13.70;94511.00;;;;7386318;19;20585;-82
2023/05/08 07:12:56;;;;;;;14.68;9.68;;;13.20;1.00;13.60;94504.00;;;;7387399;19;21656;-82
2023/05/08 07:15:33;;;;;;;59.22;11.23;;;13.10;1.00;13.50;94490.00;;;;7385426;19;20128;-79
2023/05/08 07:18:00;;;;;;;123.53;15.32;;;13.00;1.00;13.40;94470.00;;;;7387785;19;20488;-81
2023/05/08 07:20:34;;;;;;;16.08;11.38;;;12.90;99.90;13.40;94505.00;;;;7384826;19;20164;-80
2023/05/08 07:23:01;;;;;;;30.08;11.15;;;12.90;99.90;13.50;94509.00;;;;7386452;19;20156;-79
2023/05/08 07:25:35;;;;;;;31.02;11.05;;;12.70;99.90;13.00;94511.00;;;;7382107;19;20129;-74
2023/05/08 07:28:09;;;;;;;10.23;8.60;;;12.70;99.90;13.00;94485.00;;;;7384198;19;20163;-75
2023/05/08 07:30:36;;;;;;;7.75;6.85;;;12.60;99.90;13.00;94509.00;;;;7386444;19;20143;-74
2023/05/08 07:33:11;;;;;;;9.52;6.32;;;12.60;99.90;12.90;94479.00;;;;7386362;19;20184;-74
2023/05/08 07:35:45;;;;;;;4.80;2.33;;;12.50;99.90;12.90;94480.00;;;;7384549;19;20148;-73
2023/05/08 07:38:19;;;;;;;4.45;1.90;;;12.40;99.90;12.60;94504.00;;;;7386078;19;20143;-74
2023/05/08 07:40:55;;;;;;;9.18;3.45;;;12.40;99.90;12.60;94503.00;;;;7384187;19;20820;-74
2023/05/08 07:43:23;;;;;;;4.55;2.70;;;12.40;99.90;12.70;94505.00;;;;7387258;19;20196;-74
2023/05/08 07:45:57;;;;;;;6.75;1.70;;;12.40;1.00;12.60;94504.00;;;;7384321;19;20613;-75
2023/05/08 07:48:24;;;;;;;1.88;1.70;;;12.30;1.00;12.70;94514.00;;;;7383703;19;20136;-74
2023/05/08 07:50:58;;;;;;;3.15;1.50;;;12.20;99.90;12.50;94508.00;;;;7385973;19;20136;-75
2023/05/08 07:53:25;;;;;;;4.35;2.03;;;12.20;1.00;12.50;94518.00;;;;7384502;19;20140;-75
2023/05/08 07:55:59;;;;;;;9.98;2.00;;;12.10;1.00;12.50;94510.00;;;;7385562;19;20125;-75
2023/05/08 07:58:33;;;;;;;3.67;2.35;;;12.10;1.00;12.50;94511.00;;;;7384275;19;20152;-75
2023/05/08 08:01:00;;;;;;;5.07;2.10;;;12.10;1.00;12.50;94485.00;;;;7384742;19;20150;-75
2023/05/08 08:03:33;;;;;;;2.28;2.08;;;12.20;1.00;12.60;94506.00;;;;7381961;19;20180;-75
2023/05/08 08:06:01;;;;;;;3.00;2.40;;;12.20;1.00;12.80;94513.00;;;;7383535;19;20160;-76
2023/05/08 08:08:35;;;;;;;3.80;3.17;;;12.20;1.00;12.90;94492.00;;;;7384085;19;20875;-74
2023/05/08 08:11:09;;;;;;;4.70;3.22;;;12.30;1.00;12.80;94521.00;;;;7383300;19;20184;-74
2023/05/08 08:13:49;;;;;;;8.60;3.53;;;12.30;1.00;12.80;94520.00;;;;7383502;19;20543;-76
2023/05/08 08:16:24;;;;;;;3.72;2.97;;;12.30;1.00;12.50;94503.00;;;;7384647;19;20603;-75
2023/05/08 08:18:51;;;;;;;4.10;3.00;;;12.30;1.00;12.60;94506.00;;;;7385279;19;20150;-74
2023/05/08 08:21:26;;;;;;;4.55;2.80;;;12.30;1.00;12.60;94511.00;;;;7378233;19;20136;-74
2023/05/08 08:24:00;;;;;;;4.97;3.50;;;12.30;1.00;12.70;94517.00;;;;7383277;19;20160;-74
2023/05/08 08:26:34;;;;;;;11.07;3.28;;;12.30;1.00;13.10;94508.00;;;;7378675;19;20176;-74
2023/05/08 08:29:08;;;;;;;4.70;3.05;;;12.30;1.00;13.00;94515.00;;;;7384544;19;20152;-74
2023/05/08 08:31:42;;;;;;;5.88;2.85;;;12.40;1.00;12.90;94514.00;;;;7382631;19;20157;-74
2023/05/08 08:34:17;;;;;;;3.10;2.80;;;12.40;1.00;13.10;94519.00;;;;7383118;19;20203;-76
2023/05/08 08:36:51;;;;;;;3.25;2.92;;;12.50;1.00;13.30;94504.00;;;;7384586;19;20160;-74
2023/05/08 08:39:25;;;;;;;3.00;2.80;;;12.60;1.00;13.50;94517.00;;;;7383456;19;20145;-74
2023/05/08 08:41:59;;;;;;;5.50;2.53;;;12.70;1.00;13.70;94518.00;;;;7382466;19;20152;-74
2023/05/08 08:44:27;;;;;;;3.55;2.60;;;12.90;1.00;13.80;94482.00;;;;7382074;19;20232;-75
2023/05/08 08:47:03;;;;;;;3.00;2.70;;;13.10;1.00;13.90;94512.00;;;;7382609;19;20143;-75
2023/05/08 08:49:45;;;;;;;3.30;2.50;;;13.30;34.10;14.00;94506.00;;;;7382123;19;20600;-76
2023/05/08 08:52:40;;;;;;;2.88;2.50;;;13.40;1.00;14.10;94526.00;;;;7383777;19;20136;-77
2023/05/08 08:55:22;;;;;;;3.22;2.50;;;13.50;1.00;14.20;94477.00;;;;7382624;19;20876;-77
2023/05/08 08:58:21;;;;;;;6.80;2.25;;;13.60;1.00;14.20;94528.00;;;;7382715;19;20141;-73
2023/05/08 09:00:55;;;;;;;3.97;2.00;;;13.70;99.90;14.40;94525.00;;;;7383409;19;20129;-73
2023/05/08 09:03:22;;;;;;;3.28;1.95;;;13.70;99.90;14.40;94514.00;;;;7383732;19;20652;-74
2023/05/08 09:06:02;;;;;;;2.10;2.00;;;13.70;1.00;13.80;94524.00;;;;7382789;19;20129;-73
2023/05/08 09:08:29;;;;;;;2.13;1.90;;;13.70;1.00;14.30;94524.00;;;;7382466;19;20607;-73
2023/05/08 09:11:03;;;;;;;4.22;2.30;;;13.70;99.90;14.30;94516.00;;;;7382238;19;20600;-74
2023/05/08 09:13:43;;;;;;;2.47;2.28;;;13.80;1.00;14.20;94509.00;;;;7381671;19;20152;-74
2023/05/08 09:16:17;;;;;;;4.30;2.50;;;13.90;99.90;14.50;94500.00;;;;7381385;19;20156;-74
2023/05/08 09:18:44;;;;;;;2.58;1.98;;;14.00;99.90;14.90;94502.00;;;;7383581;19;20524;-75
2023/05/08 09:21:12;;;;;;;2.53;1.75;;;14.10;28.80;15.00;94512.00;;;;7382538;19;20149;-75
2023/05/08 09:24:03;;;;;;;2.78;1.88;;;14.10;7.70;15.10;94507.00;;;;7377743;19;20516;-75
2023/05/08 09:26:37;;;;;;;2.38;1.98;;;14.30;99.90;14.20;94521.00;;;;7380225;19;20160;-74
2023/05/08 09:29:22;;;;;;;4.07;2.15;;;14.30;1.00;14.10;94502.00;;;;7380097;19;20155;-73
2023/05/08 09:31:56;;;;;;;2.75;2.20;;;14.10;1.00;14.50;94515.00;;;;7381611;19;20154;-76
2023/05/08 09:34:32;;;;;;;3.30;2.30;;;14.10;1.00;14.80;94517.00;;;;7380588;19;20144;-74
2023/05/08 09:37:05;;;;;;;2.83;2.38;;;14.20;99.90;15.10;94531.00;;;;7382427;19;20140;-74
2023/05/08 09:39:40;;;;;;;3.92;2.40;;;14.30;25.40;15.30;94505.00;;;;7382852;19;20129;-75
2023/05/08 09:42:07;;;;;;;2.25;2.05;;;14.40;99.90;15.50;94521.00;;;;7382651;19;20185;-74
2023/05/08 09:44:53;;;;;;;2.38;2.15;;;14.60;1.00;15.60;94518.00;;;;7382877;19;20140;-74
2023/05/08 09:47:22;;;;;;;2.22;2.03;;;14.60;1.00;15.70;94542.00;;;;7381281;19;20141;-75
2023/05/08 09:50:09;;;;;;;2.35;2.15;;;14.60;1.00;15.40;94533.00;;;;7381383;19;20156;-74
2023/05/08 09:52:44;;;;;;;2.00;1.85;;;14.70;1.00;15.50;94534.00;;;;7379729;19;20139;-74
2023/05/08 09:55:18;;;;;;;2.05;1.95;;;14.60;99.90;15.50;94515.00;;;;7379647;19;20132;-74
2023/05/08 09:57:58;;;;;;;2.03;1.90;;;14.60;1.00;15.50;94536.00;;;;7378905;19;20145;-74
2023/05/08 10:00:38;;;;;;;1.80;1.67;;;14.80;1.00;15.70;94531.00;;;;7378715;19;20146;-74
2023/05/08 10:03:05;;;;;;;1.90;1.80;;;14.80;1.00;15.80;94522.00;;;;7381008;19;20184;-75
2023/05/08 10:05:39;;;;;;;2.30;2.10;;;14.80;1.00;15.80;94534.00;;;;7378461;19;20839;-73
2023/05/08 10:08:25;;;;;;;2.05;1.85;;;14.80;1.00;15.80;94539.00;;;;7381031;19;20533;-73
2023/05/08 10:11:20;;;;;;;3.65;2.03;;;14.80;99.90;16.20;94532.00;;;;7380391;19;20148;-73
2023/05/08 10:13:54;;;;;;;1.88;1.75;;;15.10;99.90;16.40;94537.00;;;;7379180;19;20173;-72
2023/05/08 10:16:30;;;;;;;1.65;1.42;;;15.30;99.90;16.50;94517.00;;;;7379981;19;20140;-75
2023/05/08 10:19:06;;;;;;;1.50;1.40;;;15.60;99.90;16.50;94541.00;;;;7378946;19;20133;-73
2023/05/08 10:21:45;;;;;;;1.40;1.30;;;15.70;1.00;16.60;94543.00;;;;7377895;19;20612;-76
2023/05/08 10:24:32;;;;;;;4.47;1.70;;;15.80;99.90;16.70;94537.00;;;;7381105;19;20125;-75
2023/05/08 10:27:18;;;;;;;1.30;1.20;;;16.00;1.00;16.60;94528.00;;;;7379218;19;20128;-76
2023/05/08 10:29:58;;;;;;;1.17;1.10;;;16.10;99.90;16.40;94546.00;;;;7388137;19;20137;-77
2023/05/08 10:32:39;;;;;;;1.33;1.23;;;16.20;99.90;16.30;94542.00;;;;7387393;19;20182;-77
2023/05/08 10:35:13;;;;;;;1.48;1.38;;;16.20;99.90;16.20;94532.00;;;;7388488;19;20608;-75
2023/05/08 10:37:48;;;;;;;3.65;1.55;;;16.10;11.90;16.30;94546.00;;;;7387643;19;20624;-76
2023/05/08 10:40:23;;;;;;;1.88;1.77;;;15.90;1.00;16.20;94541.00;;;;7387705;19;20133;-74
2023/05/08 10:42:57;;;;;;;2.33;2.13;;;15.80;30.10;16.20;94538.00;;;;7386807;19;20152;-75
2023/05/08 10:45:31;;;;;;;1.90;1.80;;;15.80;27.50;16.30;94518.00;;;;7387219;19;20129;-74
2023/05/08 10:48:15;;;;;;;3.03;2.83;;;15.90;99.90;16.20;94546.00;;;;7387210;19;20216;-76
2023/05/08 10:51:12;;;;;;;4.82;4.32;;;15.90;99.90;16.10;94546.00;;;;7385703;19;20156;-75
2023/05/08 10:54:03;;;;;;;6.13;5.53;;;15.80;1.00;15.90;94542.00;;;;7386074;19;20136;-73
2023/05/08 10:56:30;;;;;;;6.97;6.28;;;15.50;1.00;15.30;94533.00;;;;7386440;19;20214;-75
2023/05/08 10:59:05;;;;;;;7.03;6.32;;;15.10;1.00;15.10;94524.00;;;;7387516;19;20140;-74
2023/05/08 11:01:39;;;;;;;7.55;6.80;;;14.80;61.50;14.70;94530.00;;;;7385002;19;20152;-76
2023/05/08 11:04:21;;;;;;;7.85;7.10;;;14.50;99.90;14.60;94541.00;;;;7387220;19;20801;-77
2023/05/08 11:06:51;;;;;;;9.60;7.55;;;14.30;99.90;14.50;94550.00;;;;7384911;19;20132;-76
2023/05/08 11:09:41;;;;;;;8.25;7.50;;;14.20;1.00;14.70;94541.00;;;;7385014;19;20157;-76
2023/05/08 11:12:30;;;;;;;8.90;8.00;;;14.20;1.00;14.90;94528.00;;;;7385711;19;20180;-76
2023/05/08 11:15:13;;;;;;;10.57;9.00;;;14.20;23.30;15.20;94515.00;;;;7386028;19;20133;-76
2023/05/08 11:17:45;;;;;;;12.32;9.30;;;14.30;44.30;15.20;94534.00;;;;7386438;19;20128;-78
2023/05/08 11:20:36;;;;;;;8.02;7.25;;;14.40;99.90;15.50;94513.00;;;;7387093;19;20141;-76
2023/05/08 11:23:22;;;;;;;7.63;6.85;;;14.70;99.90;15.70;94534.00;;;;7381209;19;20136;-76
2023/05/08 11:26:15;;;;;;;7.65;6.38;;;14.90;1.00;16.00;94525.00;;;;7386196;19;20133;-75
2023/05/08 11:28:56;;;;;;;6.25;5.63;;;15.10;1.00;16.20;94533.00;;;;7384658;19;20620;-77
2023/05/08 11:31:50;;;;;;;6.80;5.22;;;15.30;99.90;16.30;94518.00;;;;7384914;19;20612;-75
2023/05/08 11:34:42;;;;;;;6.40;5.80;;;15.50;99.90;16.50;94517.00;;;;7384928;19;20211;-76